sensor_id;sensor_type;location;lat;lon;timestamp;temperature;humidity
22852;DHT22;11592;45.460;9.240;2023-05-10T00:01:33;15.90;99.90
22852;DHT22;11592;45.460;9.240;2023-05-10T00:03:59;15.90;99.90
22852;DHT22;11592;45.460;9.240;2023-05-10T00:06:26;15.90;99.90
22852;DHT22;11592;45.460;9.240;2023-05-10T00:08:53;15.90;99.90
22852;DHT22;11592;45.460;9.240;2023-05-10T00:11:20;16.00;99.90
22852;DHT22;11592;45.460;9.240;2023-05-10T00:13:48;15.90;99.90
22852;DHT22;11592;45.460;9.240;2023-05-10T00:16:15;16.10;99.90
22852;DHT22;11592;45.460;9.240;2023-05-10T00:18:42;15.90;99.90
22852;DHT22;11592;45.460;9.240;2023-05-10T00:21:09;15.90;99.90
22852;DHT22;11592;45.460;9.240;2023-05-10T00:23:36;15.90;99.90
22852;DHT22;11592;45.460;9.240;2023-05-10T00:26:02;15.80;99.90
22852;DHT22;11592;45.460;9.240;2023-05-10T00:28:29;15.80;99.90
22852;DHT22;11592;45.460;9.240;2023-05-10T00:30:56;15.90;99.90
22852;DHT22;11592;45.460;9.240;2023-05-10T00:33:23;15.80;99.90
22852;DHT22;11592;45.460;9.240;2023-05-10T00:35:50;15.80;99.90
22852;DHT22;11592;45.460;9.240;2023-05-10T00:38:17;15.70;99.90
22852;DHT22;11592;45.460;9.240;2023-05-10T00:40:43;15.80;99.90
22852;DHT22;11592;45.460;9.240;2023-05-10T00:43:10;15.80;99.90
22852;DHT22;11592;45.460;9.240;2023-05-10T00:45:39;15.80;99.90
22852;DHT22;11592;45.460;9.240;2023-05-10T00:48:07;15.70;99.90
22852;DHT22;11592;45.460;9.240;2023-05-10T00:50:34;15.80;99.90
22852;DHT22;11592;45.460;9.240;2023-05-10T00:53:02;15.70;99.90
22852;DHT22;11592;45.460;9.240;2023-05-10T00:55:30;15.70;99.90
22852;DHT22;11592;45.460;9.240;2023-05-10T00:57:57;15.70;99.90
22852;DHT22;11592;45.460;9.240;2023-05-10T01:00:23;15.70;99.90
22852;DHT22;11592;45.460;9.240;2023-05-10T01:02:50;15.70;99.90
22852;DHT22;11592;45.460;9.240;2023-05-10T01:05:17;15.60;99.90
22852;DHT22;11592;45.460;9.240;2023-05-10T01:07:45;15.50;99.90
22852;DHT22;11592;45.460;9.240;2023-05-10T01:10:12;15.40;99.90
22852;DHT22;11592;45.460;9.240;2023-05-10T01:12:44;15.40;99.90
22852;DHT22;11592;45.460;9.240;2023-05-10T01:15:12;15.40;99.90
22852;DHT22;11592;45.460;9.240;2023-05-10T01:17:42;15.50;99.90
22852;DHT22;11592;45.460;9.240;2023-05-10T01:20:11;15.50;99.90
22852;DHT22;11592;45.460;9.240;2023-05-10T01:28:21;15.30;99.90
22852;DHT22;11592;45.460;9.240;2023-05-10T01:34:02;15.30;99.90
22852;DHT22;11592;45.460;9.240;2023-05-10T01:36:38;15.30;99.90
22852;DHT22;11592;45.460;9.240;2023-05-10T01:39:17;15.30;99.90
22852;DHT22;11592;45.460;9.240;2023-05-10T01:41:55;15.40;99.90
22852;DHT22;11592;45.460;9.240;2023-05-10T01:44:29;15.50;99.90
22852;DHT22;11592;45.460;9.240;2023-05-10T01:47:20;15.50;99.90
22852;DHT22;11592;45.460;9.240;2023-05-10T01:49:52;15.50;99.90
22852;DHT22;11592;45.460;9.240;2023-05-10T01:52:25;15.60;99.90
22852;DHT22;11592;45.460;9.240;2023-05-10T01:55:00;15.30;99.90
22852;DHT22;11592;45.460;9.240;2023-05-10T01:57:32;15.10;99.90
22852;DHT22;11592;45.460;9.240;2023-05-10T01:59:59;15.10;99.90
22852;DHT22;11592;45.460;9.240;2023-05-10T02:02:28;15.30;99.90
22852;DHT22;11592;45.460;9.240;2023-05-10T02:04:57;15.20;99.90
22852;DHT22;11592;45.460;9.240;2023-05-10T02:07:26;15.20;99.90
22852;DHT22;11592;45.460;9.240;2023-05-10T02:09:54;15.20;99.90
22852;DHT22;11592;45.460;9.240;2023-05-10T02:12:22;15.10;99.90
22852;DHT22;11592;45.460;9.240;2023-05-10T02:14:51;15.20;99.90
22852;DHT22;11592;45.460;9.240;2023-05-10T02:17:19;15.20;99.90
22852;DHT22;11592;45.460;9.240;2023-05-10T02:19:47;15.40;99.90
22852;DHT22;11592;45.460;9.240;2023-05-10T02:22:15;15.10;99.90
22852;DHT22;11592;45.460;9.240;2023-05-10T02:24:43;15.10;99.90
22852;DHT22;11592;45.460;9.240;2023-05-10T02:27:11;15.10;99.90
22852;DHT22;11592;45.460;9.240;2023-05-10T02:29:39;15.10;99.90
22852;DHT22;11592;45.460;9.240;2023-05-10T02:32:06;15.10;99.90
22852;DHT22;11592;45.460;9.240;2023-05-10T02:34:33;15.00;99.90
22852;DHT22;11592;45.460;9.240;2023-05-10T02:37:02;15.10;99.90
22852;DHT22;11592;45.460;9.240;2023-05-10T02:39:29;15.00;99.90
22852;DHT22;11592;45.460;9.240;2023-05-10T02:41:57;15.00;99.90
22852;DHT22;11592;45.460;9.240;2023-05-10T02:44:27;14.90;99.90
22852;DHT22;11592;45.460;9.240;2023-05-10T02:46:57;15.00;99.90
22852;DHT22;11592;45.460;9.240;2023-05-10T02:49:25;14.90;99.90
22852;DHT22;11592;45.460;9.240;2023-05-10T02:51:55;14.90;99.90
22852;DHT22;11592;45.460;9.240;2023-05-10T02:54:30;14.80;99.90
22852;DHT22;11592;45.460;9.240;2023-05-10T02:57:00;14.90;99.90
22852;DHT22;11592;45.460;9.240;2023-05-10T02:59:29;14.70;99.90
22852;DHT22;11592;45.460;9.240;2023-05-10T03:01:56;14.70;99.90
22852;DHT22;11592;45.460;9.240;2023-05-10T03:04:23;14.70;99.90
22852;DHT22;11592;45.460;9.240;2023-05-10T03:06:50;14.80;99.90
22852;DHT22;11592;45.460;9.240;2023-05-10T03:09:17;14.80;99.90
22852;DHT22;11592;45.460;9.240;2023-05-10T03:11:55;14.70;99.90
22852;DHT22;11592;45.460;9.240;2023-05-10T03:17:15;14.70;99.90
22852;DHT22;11592;45.460;9.240;2023-05-10T03:19:53;14.70;99.90
22852;DHT22;11592;45.460;9.240;2023-05-10T03:22:47;14.70;99.90
22852;DHT22;11592;45.460;9.240;2023-05-10T03:25:16;14.70;99.90
22852;DHT22;11592;45.460;9.240;2023-05-10T03:27:45;14.70;99.90
22852;DHT22;11592;45.460;9.240;2023-05-10T03:30:13;14.70;99.90
22852;DHT22;11592;45.460;9.240;2023-05-10T03:32:41;14.70;99.90
22852;DHT22;11592;45.460;9.240;2023-05-10T03:35:09;14.70;99.90
22852;DHT22;11592;45.460;9.240;2023-05-10T03:37:36;14.70;99.90
22852;DHT22;11592;45.460;9.240;2023-05-10T03:40:03;14.80;99.90
22852;DHT22;11592;45.460;9.240;2023-05-10T03:42:30;14.90;99.90
22852;DHT22;11592;45.460;9.240;2023-05-10T03:44:57;14.90;99.90
22852;DHT22;11592;45.460;9.240;2023-05-10T03:47:24;14.90;99.90
22852;DHT22;11592;45.460;9.240;2023-05-10T03:49:51;14.90;99.90
22852;DHT22;11592;45.460;9.240;2023-05-10T03:52:17;14.90;99.90
22852;DHT22;11592;45.460;9.240;2023-05-10T03:54:44;14.90;99.90
22852;DHT22;11592;45.460;9.240;2023-05-10T03:57:11;14.80;99.90
22852;DHT22;11592;45.460;9.240;2023-05-10T03:59:38;14.80;99.90
22852;DHT22;11592;45.460;9.240;2023-05-10T04:02:05;14.80;99.90
22852;DHT22;11592;45.460;9.240;2023-05-10T04:04:32;14.80;99.90
22852;DHT22;11592;45.460;9.240;2023-05-10T04:06:59;14.80;99.90
22852;DHT22;11592;45.460;9.240;2023-05-10T04:09:25;14.80;99.90
22852;DHT22;11592;45.460;9.240;2023-05-10T04:11:52;14.90;99.90
22852;DHT22;11592;45.460;9.240;2023-05-10T04:14:19;14.90;99.90
22852;DHT22;11592;45.460;9.240;2023-05-10T04:16:46;14.90;99.90
22852;DHT22;11592;45.460;9.240;2023-05-10T04:19:13;14.90;99.90
22852;DHT22;11592;45.460;9.240;2023-05-10T04:21:40;14.80;99.90
22852;DHT22;11592;45.460;9.240;2023-05-10T04:24:07;14.80;99.90
22852;DHT22;11592;45.460;9.240;2023-05-10T04:26:34;14.80;99.90
22852;DHT22;11592;45.460;9.240;2023-05-10T04:29:00;14.80;99.90
22852;DHT22;11592;45.460;9.240;2023-05-10T04:31:27;14.70;99.90
22852;DHT22;11592;45.460;9.240;2023-05-10T04:33:54;14.70;99.90
22852;DHT22;11592;45.460;9.240;2023-05-10T04:36:21;14.70;99.90
22852;DHT22;11592;45.460;9.240;2023-05-10T04:38:48;14.70;99.90
22852;DHT22;11592;45.460;9.240;2023-05-10T04:41:15;14.70;99.90
22852;DHT22;11592;45.460;9.240;2023-05-10T04:43:41;14.70;99.90
22852;DHT22;11592;45.460;9.240;2023-05-10T04:46:08;14.70;99.90
22852;DHT22;11592;45.460;9.240;2023-05-10T04:48:35;14.80;99.90
22852;DHT22;11592;45.460;9.240;2023-05-10T04:51:02;14.80;99.90
22852;DHT22;11592;45.460;9.240;2023-05-10T04:53:30;14.60;99.90
22852;DHT22;11592;45.460;9.240;2023-05-10T04:55:57;14.50;99.90
22852;DHT22;11592;45.460;9.240;2023-05-10T04:58:24;14.60;99.90
22852;DHT22;11592;45.460;9.240;2023-05-10T05:00:50;14.60;99.90
22852;DHT22;11592;45.460;9.240;2023-05-10T05:03:17;14.50;99.90
22852;DHT22;11592;45.460;9.240;2023-05-10T05:05:44;14.60;99.90
22852;DHT22;11592;45.460;9.240;2023-05-10T05:08:11;14.50;99.90
22852;DHT22;11592;45.460;9.240;2023-05-10T05:10:38;14.60;99.90
22852;DHT22;11592;45.460;9.240;2023-05-10T05:13:05;14.60;99.90
22852;DHT22;11592;45.460;9.240;2023-05-10T05:15:32;14.50;99.90
22852;DHT22;11592;45.460;9.240;2023-05-10T05:17:59;14.50;99.90
22852;DHT22;11592;45.460;9.240;2023-05-10T05:20:26;14.50;99.90
22852;DHT22;11592;45.460;9.240;2023-05-10T05:22:53;14.50;99.90
22852;DHT22;11592;45.460;9.240;2023-05-10T05:25:20;14.40;99.90
22852;DHT22;11592;45.460;9.240;2023-05-10T05:27:46;14.50;99.90
22852;DHT22;11592;45.460;9.240;2023-05-10T05:30:13;14.60;99.90
22852;DHT22;11592;45.460;9.240;2023-05-10T05:32:40;14.60;99.90
22852;DHT22;11592;45.460;9.240;2023-05-10T05:35:08;14.60;99.90
22852;DHT22;11592;45.460;9.240;2023-05-10T05:37:34;14.60;99.90
22852;DHT22;11592;45.460;9.240;2023-05-10T05:40:02;14.60;99.90
22852;DHT22;11592;45.460;9.240;2023-05-10T05:42:29;14.60;99.90
22852;DHT22;11592;45.460;9.240;2023-05-10T05:44:57;14.60;99.90
22852;DHT22;11592;45.460;9.240;2023-05-10T05:47:24;14.70;99.90
22852;DHT22;11592;45.460;9.240;2023-05-10T05:49:51;14.60;99.90
22852;DHT22;11592;45.460;9.240;2023-05-10T05:52:17;14.60;99.90
22852;DHT22;11592;45.460;9.240;2023-05-10T05:54:44;14.70;99.90
22852;DHT22;11592;45.460;9.240;2023-05-10T05:57:11;14.60;99.90
22852;DHT22;11592;45.460;9.240;2023-05-10T05:59:38;14.60;99.90
22852;DHT22;11592;45.460;9.240;2023-05-10T06:02:10;14.70;99.90
22852;DHT22;11592;45.460;9.240;2023-05-10T06:04:37;14.70;99.90
22852;DHT22;11592;45.460;9.240;2023-05-10T06:07:04;14.70;99.90
22852;DHT22;11592;45.460;9.240;2023-05-10T06:09:31;14.70;99.90
22852;DHT22;11592;45.460;9.240;2023-05-10T06:11:58;14.70;99.90
22852;DHT22;11592;45.460;9.240;2023-05-10T06:14:25;14.70;99.90
22852;DHT22;11592;45.460;9.240;2023-05-10T06:16:51;14.90;99.90
22852;DHT22;11592;45.460;9.240;2023-05-10T06:19:18;14.80;99.90
22852;DHT22;11592;45.460;9.240;2023-05-10T06:21:45;14.90;99.90
22852;DHT22;11592;45.460;9.240;2023-05-10T06:24:12;14.90;99.90
22852;DHT22;11592;45.460;9.240;2023-05-10T06:26:39;14.90;99.90
22852;DHT22;11592;45.460;9.240;2023-05-10T06:29:05;14.90;99.90
22852;DHT22;11592;45.460;9.240;2023-05-10T06:31:33;15.00;99.90
22852;DHT22;11592;45.460;9.240;2023-05-10T06:33:59;14.90;99.90
22852;DHT22;11592;45.460;9.240;2023-05-10T06:36:26;15.00;99.90
22852;DHT22;11592;45.460;9.240;2023-05-10T06:38:54;15.10;99.90
22852;DHT22;11592;45.460;9.240;2023-05-10T06:41:21;15.10;99.90
22852;DHT22;11592;45.460;9.240;2023-05-10T06:43:50;15.10;99.90
22852;DHT22;11592;45.460;9.240;2023-05-10T06:46:17;15.10;99.90
22852;DHT22;11592;45.460;9.240;2023-05-10T06:48:44;15.10;99.90
22852;DHT22;11592;45.460;9.240;2023-05-10T06:51:11;15.00;99.90
22852;DHT22;11592;45.460;9.240;2023-05-10T06:53:38;14.90;99.90
22852;DHT22;11592;45.460;9.240;2023-05-10T06:56:04;15.10;99.90
22852;DHT22;11592;45.460;9.240;2023-05-10T06:58:31;15.00;99.90
22852;DHT22;11592;45.460;9.240;2023-05-10T07:01:03;14.90;99.90
22852;DHT22;11592;45.460;9.240;2023-05-10T07:03:31;14.90;99.90
22852;DHT22;11592;45.460;9.240;2023-05-10T07:06:02;14.90;99.90
22852;DHT22;11592;45.460;9.240;2023-05-10T07:08:30;14.90;99.90
22852;DHT22;11592;45.460;9.240;2023-05-10T07:11:05;14.90;99.90
22852;DHT22;11592;45.460;9.240;2023-05-10T07:13:34;15.00;99.90
22852;DHT22;11592;45.460;9.240;2023-05-10T07:16:01;15.00;99.90
22852;DHT22;11592;45.460;9.240;2023-05-10T07:18:28;14.90;99.90
22852;DHT22;11592;45.460;9.240;2023-05-10T07:20:57;15.00;99.90
22852;DHT22;11592;45.460;9.240;2023-05-10T07:23:24;15.00;99.90
22852;DHT22;11592;45.460;9.240;2023-05-10T07:25:51;15.00;99.90
22852;DHT22;11592;45.460;9.240;2023-05-10T07:28:19;14.90;99.90
22852;DHT22;11592;45.460;9.240;2023-05-10T07:30:46;15.00;99.90
22852;DHT22;11592;45.460;9.240;2023-05-10T07:33:13;15.00;99.90
22852;DHT22;11592;45.460;9.240;2023-05-10T07:35:40;14.90;99.90
22852;DHT22;11592;45.460;9.240;2023-05-10T07:38:07;14.90;99.90
22852;DHT22;11592;45.460;9.240;2023-05-10T07:40:34;14.90;99.90
22852;DHT22;11592;45.460;9.240;2023-05-10T07:43:01;14.90;99.90
22852;DHT22;11592;45.460;9.240;2023-05-10T07:45:29;14.90;99.90
22852;DHT22;11592;45.460;9.240;2023-05-10T07:47:55;15.20;99.90
22852;DHT22;11592;45.460;9.240;2023-05-10T07:50:22;15.20;99.90
22852;DHT22;11592;45.460;9.240;2023-05-10T07:52:49;15.30;99.90
22852;DHT22;11592;45.460;9.240;2023-05-10T07:55:18;15.30;99.90
22852;DHT22;11592;45.460;9.240;2023-05-10T07:57:45;15.40;99.90
22852;DHT22;11592;45.460;9.240;2023-05-10T08:00:13;15.50;99.90
22852;DHT22;11592;45.460;9.240;2023-05-10T08:02:40;15.50;99.90
22852;DHT22;11592;45.460;9.240;2023-05-10T08:05:08;15.50;99.90
22852;DHT22;11592;45.460;9.240;2023-05-10T08:07:35;15.50;99.90
22852;DHT22;11592;45.460;9.240;2023-05-10T08:10:02;15.50;99.90
22852;DHT22;11592;45.460;9.240;2023-05-10T08:12:29;15.60;99.90
22852;DHT22;11592;45.460;9.240;2023-05-10T08:14:56;15.70;99.90
22852;DHT22;11592;45.460;9.240;2023-05-10T08:17:23;15.60;99.90
22852;DHT22;11592;45.460;9.240;2023-05-10T08:19:50;15.70;99.90
22852;DHT22;11592;45.460;9.240;2023-05-10T08:22:17;15.70;99.90
22852;DHT22;11592;45.460;9.240;2023-05-10T08:24:43;15.70;99.90
22852;DHT22;11592;45.460;9.240;2023-05-10T08:27:10;15.70;99.90
22852;DHT22;11592;45.460;9.240;2023-05-10T08:29:37;15.70;99.90
22852;DHT22;11592;45.460;9.240;2023-05-10T08:32:16;15.80;99.90
22852;DHT22;11592;45.460;9.240;2023-05-10T08:34:42;15.90;99.90
22852;DHT22;11592;45.460;9.240;2023-05-10T08:37:09;16.10;99.90
22852;DHT22;11592;45.460;9.240;2023-05-10T08:39:39;16.30;99.90
22852;DHT22;11592;45.460;9.240;2023-05-10T08:42:06;16.40;99.90
22852;DHT22;11592;45.460;9.240;2023-05-10T08:44:36;16.70;99.90
22852;DHT22;11592;45.460;9.240;2023-05-10T08:47:05;16.90;99.90
22852;DHT22;11592;45.460;9.240;2023-05-10T08:49:33;17.00;99.90
22852;DHT22;11592;45.460;9.240;2023-05-10T08:52:03;16.90;99.90
22852;DHT22;11592;45.460;9.240;2023-05-10T08:54:34;16.90;99.90
22852;DHT22;11592;45.460;9.240;2023-05-10T08:57:01;16.70;99.90
22852;DHT22;11592;45.460;9.240;2023-05-10T08:59:28;16.60;99.90
22852;DHT22;11592;45.460;9.240;2023-05-10T09:01:57;16.50;99.90
22852;DHT22;11592;45.460;9.240;2023-05-10T09:04:25;16.50;99.90
22852;DHT22;11592;45.460;9.240;2023-05-10T09:06:53;16.70;99.90
22852;DHT22;11592;45.460;9.240;2023-05-10T09:09:20;17.00;99.90
22852;DHT22;11592;45.460;9.240;2023-05-10T09:11:48;17.20;99.90
22852;DHT22;11592;45.460;9.240;2023-05-10T09:14:15;17.40;99.90
22852;DHT22;11592;45.460;9.240;2023-05-10T09:16:42;17.40;99.90
22852;DHT22;11592;45.460;9.240;2023-05-10T09:19:09;17.50;99.90
22852;DHT22;11592;45.460;9.240;2023-05-10T09:21:37;17.60;99.90
22852;DHT22;11592;45.460;9.240;2023-05-10T09:24:08;17.60;99.90
22852;DHT22;11592;45.460;9.240;2023-05-10T09:26:35;17.70;99.90
22852;DHT22;11592;45.460;9.240;2023-05-10T09:29:11;17.80;99.90
22852;DHT22;11592;45.460;9.240;2023-05-10T09:31:46;17.80;99.90
22852;DHT22;11592;45.460;9.240;2023-05-10T09:34:29;17.70;99.90
22852;DHT22;11592;45.460;9.240;2023-05-10T09:36:59;17.70;99.90
22852;DHT22;11592;45.460;9.240;2023-05-10T09:39:32;17.80;99.90
22852;DHT22;11592;45.460;9.240;2023-05-10T09:42:18;17.70;99.90
22852;DHT22;11592;45.460;9.240;2023-05-10T09:44:45;17.80;99.90
22852;DHT22;11592;45.460;9.240;2023-05-10T09:47:17;17.90;99.90
22852;DHT22;11592;45.460;9.240;2023-05-10T09:49:54;18.00;99.90
22852;DHT22;11592;45.460;9.240;2023-05-10T09:52:24;18.00;99.90
22852;DHT22;11592;45.460;9.240;2023-05-10T09:54:54;18.10;99.90
22852;DHT22;11592;45.460;9.240;2023-05-10T09:57:22;18.10;99.90
22852;DHT22;11592;45.460;9.240;2023-05-10T09:59:49;18.00;99.90
22852;DHT22;11592;45.460;9.240;2023-05-10T10:02:17;18.00;99.90
22852;DHT22;11592;45.460;9.240;2023-05-10T10:04:44;18.10;99.90
22852;DHT22;11592;45.460;9.240;2023-05-10T10:07:11;18.30;99.90
22852;DHT22;11592;45.460;9.240;2023-05-10T10:09:38;18.40;99.90
22852;DHT22;11592;45.460;9.240;2023-05-10T10:12:05;18.30;99.90
22852;DHT22;11592;45.460;9.240;2023-05-10T10:14:32;18.40;99.90
22852;DHT22;11592;45.460;9.240;2023-05-10T10:17:00;18.50;99.90
22852;DHT22;11592;45.460;9.240;2023-05-10T10:19:33;18.30;99.90
22852;DHT22;11592;45.460;9.240;2023-05-10T10:22:00;17.80;99.90
22852;DHT22;11592;45.460;9.240;2023-05-10T10:24:27;17.70;99.90
22852;DHT22;11592;45.460;9.240;2023-05-10T10:26:57;17.80;99.90
22852;DHT22;11592;45.460;9.240;2023-05-10T10:34:35;17.60;99.90
22852;DHT22;11592;45.460;9.240;2023-05-10T10:37:06;17.70;99.90
22852;DHT22;11592;45.460;9.240;2023-05-10T10:39:33;17.20;99.90
22852;DHT22;11592;45.460;9.240;2023-05-10T10:42:04;16.90;99.90
22852;DHT22;11592;45.460;9.240;2023-05-10T10:47:06;16.60;99.90
22852;DHT22;11592;45.460;9.240;2023-05-10T10:49:43;16.50;99.90
22852;DHT22;11592;45.460;9.240;2023-05-10T10:52:21;16.50;99.90
22852;DHT22;11592;45.460;9.240;2023-05-10T10:55:15;16.40;99.90
22852;DHT22;11592;45.460;9.240;2023-05-10T11:00:31;16.20;99.90
22852;DHT22;11592;45.460;9.240;2023-05-10T11:02:59;16.50;99.90
22852;DHT22;11592;45.460;9.240;2023-05-10T11:05:42;16.60;99.90
22852;DHT22;11592;45.460;9.240;2023-05-10T11:08:21;16.70;99.90
22852;DHT22;11592;45.460;9.240;2023-05-10T11:13:46;16.60;99.90
22852;DHT22;11592;45.460;9.240;2023-05-10T11:16:21;16.30;99.90
22852;DHT22;11592;45.460;9.240;2023-05-10T11:19:16;16.20;99.90
22852;DHT22;11592;45.460;9.240;2023-05-10T11:22:11;16.30;99.90
22852;DHT22;11592;45.460;9.240;2023-05-10T11:24:39;16.70;99.90
22852;DHT22;11592;45.460;9.240;2023-05-10T11:27:06;17.00;99.90
22852;DHT22;11592;45.460;9.240;2023-05-10T11:29:33;17.00;99.90
22852;DHT22;11592;45.460;9.240;2023-05-10T11:32:00;16.80;99.90
22852;DHT22;11592;45.460;9.240;2023-05-10T11:34:31;16.50;99.90
22852;DHT22;11592;45.460;9.240;2023-05-10T11:37:00;16.60;99.90
22852;DHT22;11592;45.460;9.240;2023-05-10T11:39:28;16.80;99.90
22852;DHT22;11592;45.460;9.240;2023-05-10T11:41:56;16.70;99.90
22852;DHT22;11592;45.460;9.240;2023-05-10T11:44:29;16.80;99.90
22852;DHT22;11592;45.460;9.240;2023-05-10T11:47:01;16.70;99.90
22852;DHT22;11592;45.460;9.240;2023-05-10T11:49:28;16.70;99.90
22852;DHT22;11592;45.460;9.240;2023-05-10T11:52:05;16.90;99.90
22852;DHT22;11592;45.460;9.240;2023-05-10T11:54:32;16.90;99.90
22852;DHT22;11592;45.460;9.240;2023-05-10T11:57:01;16.70;99.90
22852;DHT22;11592;45.460;9.240;2023-05-10T11:59:28;16.50;99.90
22852;DHT22;11592;45.460;9.240;2023-05-10T12:01:55;16.40;99.90
22852;DHT22;11592;45.460;9.240;2023-05-10T12:04:22;16.40;99.90
22852;DHT22;11592;45.460;9.240;2023-05-10T12:06:49;16.60;99.90
22852;DHT22;11592;45.460;9.240;2023-05-10T12:09:16;16.20;99.90
22852;DHT22;11592;45.460;9.240;2023-05-10T12:11:48;15.90;99.90
22852;DHT22;11592;45.460;9.240;2023-05-10T12:14:15;15.70;99.90
22852;DHT22;11592;45.460;9.240;2023-05-10T12:16:43;15.80;99.90
22852;DHT22;11592;45.460;9.240;2023-05-10T12:19:10;15.80;99.90
22852;DHT22;11592;45.460;9.240;2023-05-10T12:21:37;15.80;99.90
22852;DHT22;11592;45.460;9.240;2023-05-10T12:24:05;15.90;99.90
22852;DHT22;11592;45.460;9.240;2023-05-10T12:26:32;16.00;99.90
22852;DHT22;11592;45.460;9.240;2023-05-10T12:29:13;16.20;99.90
22852;DHT22;11592;45.460;9.240;2023-05-10T12:31:51;16.70;99.90
22852;DHT22;11592;45.460;9.240;2023-05-10T12:34:32;16.90;99.90
22852;DHT22;11592;45.460;9.240;2023-05-10T12:37:00;17.00;99.90
22852;DHT22;11592;45.460;9.240;2023-05-10T12:39:41;17.50;99.90
22852;DHT22;11592;45.460;9.240;2023-05-10T12:42:09;17.90;99.90
22852;DHT22;11592;45.460;9.240;2023-05-10T12:44:35;18.00;99.90
22852;DHT22;11592;45.460;9.240;2023-05-10T12:47:02;18.00;99.90
22852;DHT22;11592;45.460;9.240;2023-05-10T12:49:29;18.00;99.90
22852;DHT22;11592;45.460;9.240;2023-05-10T12:51:56;18.20;99.90
22852;DHT22;11592;45.460;9.240;2023-05-10T12:54:22;18.30;99.90
22852;DHT22;11592;45.460;9.240;2023-05-10T12:56:49;18.50;99.90
22852;DHT22;11592;45.460;9.240;2023-05-10T12:59:16;18.30;99.90
22852;DHT22;11592;45.460;9.240;2023-05-10T13:01:42;18.00;99.90
22852;DHT22;11592;45.460;9.240;2023-05-10T13:04:09;18.00;99.90
22852;DHT22;11592;45.460;9.240;2023-05-10T13:06:36;18.00;99.90
22852;DHT22;11592;45.460;9.240;2023-05-10T13:09:03;18.20;99.90
22852;DHT22;11592;45.460;9.240;2023-05-10T13:11:30;18.30;99.90
22852;DHT22;11592;45.460;9.240;2023-05-10T13:13:57;18.20;99.90
22852;DHT22;11592;45.460;9.240;2023-05-10T13:16:23;18.50;99.90
22852;DHT22;11592;45.460;9.240;2023-05-10T13:18:50;18.70;99.90
22852;DHT22;11592;45.460;9.240;2023-05-10T13:21:17;18.70;99.90
22852;DHT22;11592;45.460;9.240;2023-05-10T13:23:43;18.60;99.90
22852;DHT22;11592;45.460;9.240;2023-05-10T13:26:10;18.70;99.90
22852;DHT22;11592;45.460;9.240;2023-05-10T13:28:37;18.80;99.90
22852;DHT22;11592;45.460;9.240;2023-05-10T13:31:05;18.90;99.90
22852;DHT22;11592;45.460;9.240;2023-05-10T13:33:32;19.00;99.90
22852;DHT22;11592;45.460;9.240;2023-05-10T13:35:59;18.90;99.90
22852;DHT22;11592;45.460;9.240;2023-05-10T13:38:25;18.80;99.90
22852;DHT22;11592;45.460;9.240;2023-05-10T13:40:52;18.70;99.90
22852;DHT22;11592;45.460;9.240;2023-05-10T13:43:19;18.50;99.90
22852;DHT22;11592;45.460;9.240;2023-05-10T13:45:46;18.30;99.90
22852;DHT22;11592;45.460;9.240;2023-05-10T13:48:13;17.90;99.90
22852;DHT22;11592;45.460;9.240;2023-05-10T13:50:39;17.70;99.90
22852;DHT22;11592;45.460;9.240;2023-05-10T13:53:06;17.70;99.90
22852;DHT22;11592;45.460;9.240;2023-05-10T13:55:33;17.60;99.90
22852;DHT22;11592;45.460;9.240;2023-05-10T13:58:00;17.40;99.90
22852;DHT22;11592;45.460;9.240;2023-05-10T14:00:27;17.10;99.90
22852;DHT22;11592;45.460;9.240;2023-05-10T14:02:53;17.20;99.90
22852;DHT22;11592;45.460;9.240;2023-05-10T14:05:20;17.40;99.90
22852;DHT22;11592;45.460;9.240;2023-05-10T14:07:51;17.80;99.90
22852;DHT22;11592;45.460;9.240;2023-05-10T14:10:18;17.90;99.90
22852;DHT22;11592;45.460;9.240;2023-05-10T14:12:45;17.90;99.90
22852;DHT22;11592;45.460;9.240;2023-05-10T14:15:12;18.10;99.90
22852;DHT22;11592;45.460;9.240;2023-05-10T14:17:38;18.20;99.90
22852;DHT22;11592;45.460;9.240;2023-05-10T14:20:06;18.20;99.90
22852;DHT22;11592;45.460;9.240;2023-05-10T14:22:33;18.40;99.90
22852;DHT22;11592;45.460;9.240;2023-05-10T14:25:00;18.40;99.90
22852;DHT22;11592;45.460;9.240;2023-05-10T14:27:27;18.20;99.90
22852;DHT22;11592;45.460;9.240;2023-05-10T14:29:54;18.40;99.90
22852;DHT22;11592;45.460;9.240;2023-05-10T14:32:21;18.70;99.90
22852;DHT22;11592;45.460;9.240;2023-05-10T14:34:48;18.70;99.90
22852;DHT22;11592;45.460;9.240;2023-05-10T14:37:14;19.00;99.90
22852;DHT22;11592;45.460;9.240;2023-05-10T14:39:41;19.50;99.90
22852;DHT22;11592;45.460;9.240;2023-05-10T14:42:09;19.80;99.90
22852;DHT22;11592;45.460;9.240;2023-05-10T14:44:35;20.00;99.90
22852;DHT22;11592;45.460;9.240;2023-05-10T14:47:02;20.10;99.90
22852;DHT22;11592;45.460;9.240;2023-05-10T14:49:29;19.70;99.90
22852;DHT22;11592;45.460;9.240;2023-05-10T14:51:56;19.60;99.90
22852;DHT22;11592;45.460;9.240;2023-05-10T14:54:23;19.50;99.90
22852;DHT22;11592;45.460;9.240;2023-05-10T14:56:49;19.50;99.90
22852;DHT22;11592;45.460;9.240;2023-05-10T14:59:16;19.50;99.90
22852;DHT22;11592;45.460;9.240;2023-05-10T15:01:44;19.50;99.90
22852;DHT22;11592;45.460;9.240;2023-05-10T15:04:12;19.40;99.90
22852;DHT22;11592;45.460;9.240;2023-05-10T15:06:40;19.10;99.90
22852;DHT22;11592;45.460;9.240;2023-05-10T15:09:07;19.00;99.90
22852;DHT22;11592;45.460;9.240;2023-05-10T15:11:34;18.90;99.90
22852;DHT22;11592;45.460;9.240;2023-05-10T15:14:01;18.70;99.90
22852;DHT22;11592;45.460;9.240;2023-05-10T15:16:28;18.70;99.90
22852;DHT22;11592;45.460;9.240;2023-05-10T15:18:55;18.60;99.90
22852;DHT22;11592;45.460;9.240;2023-05-10T15:21:21;18.30;99.90
22852;DHT22;11592;45.460;9.240;2023-05-10T15:23:48;18.40;99.90
22852;DHT22;11592;45.460;9.240;2023-05-10T15:26:15;18.40;99.90
22852;DHT22;11592;45.460;9.240;2023-05-10T15:28:42;18.40;99.90
22852;DHT22;11592;45.460;9.240;2023-05-10T15:31:09;18.40;99.90
22852;DHT22;11592;45.460;9.240;2023-05-10T15:33:37;18.30;99.90
22852;DHT22;11592;45.460;9.240;2023-05-10T15:36:05;18.20;99.90
22852;DHT22;11592;45.460;9.240;2023-05-10T15:38:31;18.00;99.90
22852;DHT22;11592;45.460;9.240;2023-05-10T15:40:58;18.00;99.90
22852;DHT22;11592;45.460;9.240;2023-05-10T15:43:25;18.00;99.90
22852;DHT22;11592;45.460;9.240;2023-05-10T15:45:52;17.80;99.90
22852;DHT22;11592;45.460;9.240;2023-05-10T15:48:18;17.80;99.90
22852;DHT22;11592;45.460;9.240;2023-05-10T15:50:45;17.80;99.90
22852;DHT22;11592;45.460;9.240;2023-05-10T15:53:12;17.80;99.90
22852;DHT22;11592;45.460;9.240;2023-05-10T15:55:39;17.90;99.90
22852;DHT22;11592;45.460;9.240;2023-05-10T15:58:06;18.00;99.90
22852;DHT22;11592;45.460;9.240;2023-05-10T16:00:33;18.00;99.90
22852;DHT22;11592;45.460;9.240;2023-05-10T16:02:59;18.00;99.90